Terminal Aerodrome Forecast
Issued by NWS

Home | Current Version | Previous Version | Text Only | Print | Product List | Glossary On
Versions: 1 2 3 4 5 6 7 8 9 10 11 12 13 14 15
000
FTUS43 KICT 232300
TAFSLN
TAF
KSLN 232339Z 2400/2424 19024G33KT P6SM SCT150
     FM240530 23016KT P6SM VCTS BKN080CB
     FM240800 31022G30KT P6SM TSRA BKN030CB
     FM241000 33018G24KT P6SM VCSH BKN025
     FM241400 33018G26KT P6SM SCT025 BKN080=

USA.gov is the U.S. government's official web portal to all federal, state and local government web resources and services.